DAL8943 CYYZ-KBOS
Flight info
| Callsign | DAL8943 |
|---|---|
| Flight time | 1h 9m |
| Altitude | 35000 |
| Route | KEPTA3 BMPAH DCT AEVON DCT HANKK DCT PONCT JFUND2 |
| Aircraft | B739/M-SDE2E3FGHIRWXY/LB1 |
Departure
| Time | 2026-05-06 14:29 |
|---|---|
| Airport | Toronto Pearson International Airport (CYYZ) |
Arrival
| Time | 2026-05-06 15:38 |
|---|---|
| Airport | Boston Logan International Airport (KBOS) |
| Time | Latitude | Longitude | Altitude | Speed | Heading |
|---|---|---|---|---|---|
| 2026-05-06 14:05 | 43.68160 | -79.60174 | 560 ft | 0 kts | 316° |
| 2026-05-06 14:18 | 43.68157 | -79.60170 | 570 ft | 3 kts | 316° |
| 2026-05-06 14:18 | 43.68138 | -79.60144 | 560 ft | 4 kts | 315° |
| 2026-05-06 14:18 | 43.68121 | -79.60116 | 567 ft | 4 kts | 295° |
| 2026-05-06 14:18 | 43.68116 | -79.60082 | 570 ft | 4 kts | 253° |
| 2026-05-06 14:19 | 43.68122 | -79.60064 | 564 ft | 0 kts | 226° |
| 2026-05-06 14:21 | 43.68114 | -79.60075 | 569 ft | 6 kts | 226° |
| 2026-05-06 14:21 | 43.68055 | -79.60112 | 567 ft | 11 kts | 169° |
| 2026-05-06 14:21 | 43.67998 | -79.60047 | 561 ft | 11 kts | 137° |
| 2026-05-06 14:22 | 43.67925 | -79.60033 | 564 ft | 13 kts | 210° |
| 2026-05-06 14:22 | 43.67860 | -79.60118 | 566 ft | 13 kts | 225° |
| 2026-05-06 14:22 | 43.67796 | -79.60209 | 561 ft | 14 kts | 226° |
| 2026-05-06 14:22 | 43.67719 | -79.60319 | 569 ft | 16 kts | 226° |
| 2026-05-06 14:23 | 43.67641 | -79.60430 | 565 ft | 16 kts | 226° |
| 2026-05-06 14:23 | 43.67570 | -79.60539 | 560 ft | 15 kts | 229° |
| 2026-05-06 14:23 | 43.67501 | -79.60647 | 561 ft | 15 kts | 228° |
| 2026-05-06 14:23 | 43.67435 | -79.60749 | 563 ft | 14 kts | 228° |
| 2026-05-06 14:24 | 43.67372 | -79.60847 | 556 ft | 13 kts | 228° |
| 2026-05-06 14:24 | 43.67311 | -79.60940 | 557 ft | 13 kts | 228° |
| 2026-05-06 14:24 | 43.67252 | -79.61031 | 562 ft | 13 kts | 228° |
| 2026-05-06 14:24 | 43.67188 | -79.61111 | 563 ft | 12 kts | 218° |
| 2026-05-06 14:25 | 43.67122 | -79.61204 | 568 ft | 16 kts | 226° |
| 2026-05-06 14:25 | 43.67026 | -79.61338 | 565 ft | 21 kts | 225° |
| 2026-05-06 14:25 | 43.66926 | -79.61477 | 567 ft | 20 kts | 226° |
| 2026-05-06 14:25 | 43.66848 | -79.61631 | 565 ft | 20 kts | 254° |
| 2026-05-06 14:26 | 43.66809 | -79.61810 | 565 ft | 19 kts | 246° |
| 2026-05-06 14:26 | 43.66722 | -79.61943 | 566 ft | 19 kts | 223° |
| 2026-05-06 14:26 | 43.66630 | -79.62062 | 567 ft | 18 kts | 223° |
| 2026-05-06 14:26 | 43.66540 | -79.62177 | 564 ft | 17 kts | 223° |
| 2026-05-06 14:27 | 43.66452 | -79.62288 | 562 ft | 17 kts | 223° |
| 2026-05-06 14:27 | 43.66369 | -79.62393 | 561 ft | 16 kts | 222° |
| 2026-05-06 14:27 | 43.66269 | -79.62414 | 560 ft | 16 kts | 140° |
| 2026-05-06 14:27 | 43.66186 | -79.62315 | 569 ft | 15 kts | 136° |
| 2026-05-06 14:28 | 43.66198 | -79.62194 | 566 ft | 15 kts | 48° |
| 2026-05-06 14:28 | 43.66316 | -79.62012 | 571 ft | 53 kts | 48° |
| 2026-05-06 14:28 | 43.66726 | -79.61404 | 564 ft | 117 kts | 45° |
| 2026-05-06 14:28 | 43.67406 | -79.60414 | 597 ft | 161 kts | 47° |
| 2026-05-06 14:29 | 43.68203 | -79.59242 | 964 ft | 177 kts | 49° |
| 2026-05-06 14:29 | 43.68887 | -79.57809 | 1526 ft | 182 kts | 79° |
| 2026-05-06 14:29 | 43.68844 | -79.56057 | 2127 ft | 184 kts | 105° |
| 2026-05-06 14:29 | 43.68495 | -79.54291 | 2484 ft | 200 kts | 104° |
| 2026-05-06 14:30 | 43.68152 | -79.52316 | 2691 ft | 222 kts | 104° |
| 2026-05-06 14:30 | 43.67794 | -79.50169 | 2943 ft | 240 kts | 103° |
| 2026-05-06 14:30 | 43.67429 | -79.47862 | 3372 ft | 252 kts | 103° |
| 2026-05-06 14:30 | 43.67012 | -79.45480 | 4021 ft | 257 kts | 113° |
| 2026-05-06 14:31 | 43.65971 | -79.43473 | 4684 ft | 260 kts | 136° |
| 2026-05-06 14:31 | 43.64654 | -79.41733 | 5387 ft | 264 kts | 137° |
| 2026-05-06 14:31 | 43.63325 | -79.39953 | 6092 ft | 268 kts | 138° |
| 2026-05-06 14:31 | 43.61973 | -79.38112 | 6655 ft | 278 kts | 137° |
| 2026-05-06 14:32 | 43.60589 | -79.36195 | 7284 ft | 284 kts | 137° |
| 2026-05-06 14:32 | 43.59196 | -79.34250 | 7974 ft | 286 kts | 137° |
| 2026-05-06 14:32 | 43.57791 | -79.32271 | 8614 ft | 292 kts | 137° |
| 2026-05-06 14:32 | 43.56363 | -79.30251 | 9274 ft | 295 kts | 137° |
| 2026-05-06 14:33 | 43.54922 | -79.28209 | 9938 ft | 298 kts | 138° |
| 2026-05-06 14:33 | 43.53449 | -79.26123 | 10308 ft | 314 kts | 139° |
| 2026-05-06 14:33 | 43.51868 | -79.23888 | 10488 ft | 335 kts | 139° |
| 2026-05-06 14:33 | 43.50211 | -79.21536 | 10856 ft | 347 kts | 139° |
| 2026-05-06 14:34 | 43.48538 | -79.19160 | 11435 ft | 352 kts | 139° |
| 2026-05-06 14:34 | 43.46829 | -79.16738 | 12109 ft | 354 kts | 140° |
| 2026-05-06 14:34 | 43.45119 | -79.14266 | 12771 ft | 359 kts | 136° |
| 2026-05-06 14:34 | 43.43670 | -79.11400 | 13399 ft | 371 kts | 124° |
| 2026-05-06 14:35 | 43.42572 | -79.08126 | 14037 ft | 379 kts | 118° |
| 2026-05-06 14:35 | 43.41548 | -79.04766 | 14664 ft | 384 kts | 118° |
| 2026-05-06 14:35 | 43.40519 | -79.01340 | 15289 ft | 389 kts | 118° |
| 2026-05-06 14:35 | 43.39478 | -78.97894 | 15918 ft | 392 kts | 118° |
| 2026-05-06 14:36 | 43.38413 | -78.94419 | 16535 ft | 396 kts | 118° |
| 2026-05-06 14:36 | 43.37346 | -78.90966 | 17123 ft | 400 kts | 119° |
| 2026-05-06 14:36 | 43.36236 | -78.87397 | 17734 ft | 403 kts | 119° |
| 2026-05-06 14:36 | 43.35133 | -78.83866 | 18270 ft | 407 kts | 119° |
| 2026-05-06 14:37 | 43.34010 | -78.80273 | 18833 ft | 411 kts | 119° |
| 2026-05-06 14:37 | 43.32874 | -78.76648 | 19353 ft | 416 kts | 119° |
| 2026-05-06 14:37 | 43.31725 | -78.72987 | 19892 ft | 419 kts | 120° |
| 2026-05-06 14:37 | 43.30561 | -78.69284 | 20423 ft | 423 kts | 120° |
| 2026-05-06 14:38 | 43.29390 | -78.65562 | 20947 ft | 426 kts | 120° |
| 2026-05-06 14:38 | 43.28515 | -78.62787 | 21292 ft | 430 kts | 120° |
| 2026-05-06 14:38 | 43.27624 | -78.59959 | 21634 ft | 433 kts | 120° |
| 2026-05-06 14:38 | 43.26420 | -78.56143 | 22146 ft | 435 kts | 120° |
| 2026-05-06 14:39 | 43.25211 | -78.52309 | 22640 ft | 438 kts | 120° |
| 2026-05-06 14:39 | 43.23997 | -78.48469 | 23095 ft | 442 kts | 120° |
| 2026-05-06 14:39 | 43.22800 | -78.44686 | 23486 ft | 446 kts | 120° |
| 2026-05-06 14:39 | 43.21560 | -78.40774 | 23912 ft | 450 kts | 120° |
| 2026-05-06 14:40 | 43.20301 | -78.36811 | 24356 ft | 453 kts | 120° |
| 2026-05-06 14:40 | 43.18965 | -78.32915 | 24803 ft | 450 kts | 127° |
| 2026-05-06 14:40 | 43.17256 | -78.29380 | 25250 ft | 441 kts | 137° |
| 2026-05-06 14:40 | 43.15306 | -78.26131 | 25699 ft | 442 kts | 138° |
| 2026-05-06 14:41 | 43.13320 | -78.22899 | 26094 ft | 445 kts | 139° |
| 2026-05-06 14:41 | 43.11322 | -78.19644 | 26482 ft | 448 kts | 139° |
| 2026-05-06 14:41 | 43.09323 | -78.16359 | 26881 ft | 451 kts | 138° |
| 2026-05-06 14:41 | 43.07318 | -78.13035 | 27306 ft | 453 kts | 138° |
| 2026-05-06 14:42 | 43.05803 | -78.10511 | 27611 ft | 454 kts | 138° |
| 2026-05-06 14:42 | 43.04647 | -78.08584 | 27797 ft | 456 kts | 138° |
| 2026-05-06 14:42 | 43.02654 | -78.05261 | 28145 ft | 459 kts | 139° |
| 2026-05-06 14:42 | 43.00627 | -78.01881 | 28491 ft | 461 kts | 139° |
| 2026-05-06 14:43 | 42.98593 | -77.98494 | 28834 ft | 464 kts | 138° |
| 2026-05-06 14:43 | 42.96536 | -77.95078 | 29121 ft | 467 kts | 138° |
| 2026-05-06 14:43 | 42.94478 | -77.91605 | 29387 ft | 475 kts | 134° |
| 2026-05-06 14:43 | 42.92804 | -77.87620 | 29661 ft | 494 kts | 120° |
| 2026-05-06 14:44 | 42.91694 | -77.83132 | 30017 ft | 505 kts | 110° |
| 2026-05-06 14:44 | 42.91118 | -77.78365 | 30286 ft | 517 kts | 98° |
| 2026-05-06 14:44 | 42.91001 | -77.73421 | 30558 ft | 522 kts | 96° |
| 2026-05-06 14:45 | 42.90927 | -77.63511 | 31322 ft | 521 kts | 95° |
| 2026-05-06 14:45 | 42.90891 | -77.58581 | 31742 ft | 519 kts | 95° |
| 2026-05-06 14:45 | 42.90838 | -77.53669 | 32089 ft | 519 kts | 96° |
| 2026-05-06 14:45 | 42.90764 | -77.48744 | 32414 ft | 518 kts | 96° |
| 2026-05-06 14:46 | 42.90676 | -77.43835 | 32761 ft | 517 kts | 96° |
| 2026-05-06 14:46 | 42.90579 | -77.38935 | 33098 ft | 517 kts | 97° |
| 2026-05-06 14:46 | 42.90477 | -77.34035 | 33400 ft | 516 kts | 97° |
| 2026-05-06 14:46 | 42.90372 | -77.29125 | 33675 ft | 517 kts | 97° |
| 2026-05-06 14:47 | 42.90266 | -77.24232 | 33950 ft | 517 kts | 97° |
| 2026-05-06 14:47 | 42.90161 | -77.19400 | 34260 ft | 516 kts | 97° |
| 2026-05-06 14:47 | 42.90054 | -77.14511 | 34550 ft | 515 kts | 97° |
| 2026-05-06 14:47 | 42.89945 | -77.09615 | 34760 ft | 517 kts | 96° |
| 2026-05-06 14:48 | 42.89833 | -77.04711 | 34865 ft | 519 kts | 96° |
| 2026-05-06 14:48 | 42.89603 | -76.94867 | 34860 ft | 519 kts | 96° |
| 2026-05-06 14:49 | 42.89368 | -76.85050 | 34851 ft | 517 kts | 96° |
| 2026-05-06 14:49 | 42.89124 | -76.75271 | 34849 ft | 515 kts | 96° |
| 2026-05-06 14:50 | 42.88871 | -76.65518 | 34847 ft | 514 kts | 96° |
| 2026-05-06 14:50 | 42.88610 | -76.55764 | 34837 ft | 514 kts | 96° |
| 2026-05-06 14:51 | 42.88340 | -76.46012 | 34834 ft | 515 kts | 96° |
| 2026-05-06 14:51 | 42.88062 | -76.36249 | 34840 ft | 516 kts | 96° |
| 2026-05-06 14:52 | 42.87776 | -76.26515 | 34839 ft | 517 kts | 97° |
| 2026-05-06 14:52 | 42.87480 | -76.16683 | 34833 ft | 518 kts | 96° |
| 2026-05-06 14:53 | 42.87177 | -76.06864 | 34833 ft | 519 kts | 96° |
| 2026-05-06 14:53 | 42.86863 | -75.97014 | 34840 ft | 520 kts | 97° |
| 2026-05-06 14:54 | 42.86541 | -75.87165 | 34842 ft | 520 kts | 96° |
| 2026-05-06 14:54 | 42.86210 | -75.77308 | 34839 ft | 520 kts | 96° |
| 2026-05-06 14:55 | 42.85871 | -75.67454 | 34818 ft | 520 kts | 96° |
| 2026-05-06 14:55 | 42.85525 | -75.57670 | 34829 ft | 520 kts | 96° |
| 2026-05-06 14:56 | 42.85170 | -75.47817 | 34817 ft | 520 kts | 96° |
| 2026-05-06 14:56 | 42.84806 | -75.37985 | 34821 ft | 519 kts | 96° |
| 2026-05-06 14:57 | 42.84435 | -75.28171 | 34822 ft | 518 kts | 96° |
| 2026-05-06 14:57 | 42.84054 | -75.18361 | 34818 ft | 518 kts | 96° |
| 2026-05-06 14:58 | 42.83733 | -75.10227 | 34808 ft | 517 kts | 96° |
| 2026-05-06 14:58 | 42.83338 | -75.00448 | 34811 ft | 517 kts | 96° |
| 2026-05-06 14:59 | 42.82935 | -74.90661 | 34826 ft | 516 kts | 96° |
| 2026-05-06 14:59 | 42.82525 | -74.80898 | 34831 ft | 516 kts | 96° |
| 2026-05-06 15:00 | 42.82110 | -74.71199 | 34825 ft | 516 kts | 96° |
| 2026-05-06 15:00 | 42.81684 | -74.61444 | 34833 ft | 516 kts | 96° |
| 2026-05-06 15:01 | 42.81251 | -74.51694 | 34820 ft | 515 kts | 96° |
| 2026-05-06 15:01 | 42.80806 | -74.41948 | 34831 ft | 515 kts | 96° |
| 2026-05-06 15:02 | 42.80354 | -74.32207 | 34813 ft | 515 kts | 96° |
| 2026-05-06 15:02 | 42.79899 | -74.22547 | 34840 ft | 514 kts | 96° |
| 2026-05-06 15:03 | 42.79432 | -74.12817 | 34817 ft | 515 kts | 97° |
| 2026-05-06 15:03 | 42.78957 | -74.03083 | 34836 ft | 515 kts | 98° |
| 2026-05-06 15:04 | 42.78472 | -73.93314 | 34840 ft | 516 kts | 97° |
| 2026-05-06 15:04 | 42.77978 | -73.83550 | 34831 ft | 517 kts | 97° |
| 2026-05-06 15:05 | 42.77479 | -73.73854 | 34835 ft | 517 kts | 97° |
| 2026-05-06 15:05 | 42.76970 | -73.64097 | 34838 ft | 517 kts | 97° |
| 2026-05-06 15:05 | 42.76711 | -73.59196 | 34449 ft | 524 kts | 97° |
| 2026-05-06 15:06 | 42.76445 | -73.54244 | 33938 ft | 521 kts | 98° |
| 2026-05-06 15:06 | 42.76187 | -73.49384 | 33427 ft | 509 kts | 98° |
| 2026-05-06 15:06 | 42.75933 | -73.44633 | 32929 ft | 498 kts | 98° |
| 2026-05-06 15:06 | 42.75680 | -73.39949 | 32475 ft | 494 kts | 98° |
| 2026-05-06 15:07 | 42.75424 | -73.35309 | 31986 ft | 490 kts | 98° |
| 2026-05-06 15:07 | 42.75165 | -73.30707 | 31521 ft | 486 kts | 98° |
| 2026-05-06 15:07 | 42.74909 | -73.26136 | 31043 ft | 483 kts | 98° |
| 2026-05-06 15:07 | 42.74654 | -73.21599 | 30563 ft | 479 kts | 98° |
| 2026-05-06 15:08 | 42.74399 | -73.17093 | 30114 ft | 475 kts | 97° |
| 2026-05-06 15:08 | 42.74145 | -73.12626 | 29641 ft | 472 kts | 98° |
| 2026-05-06 15:08 | 42.73792 | -73.08232 | 29290 ft | 463 kts | 102° |
| 2026-05-06 15:08 | 42.73318 | -73.03927 | 28885 ft | 458 kts | 103° |
| 2026-05-06 15:09 | 42.72807 | -72.99734 | 28420 ft | 454 kts | 104° |
| 2026-05-06 15:09 | 42.72283 | -72.95517 | 27968 ft | 450 kts | 104° |
| 2026-05-06 15:09 | 42.71770 | -72.91327 | 27519 ft | 447 kts | 104° |
| 2026-05-06 15:09 | 42.71273 | -72.87175 | 27057 ft | 444 kts | 103° |
| 2026-05-06 15:10 | 42.70762 | -72.83058 | 26609 ft | 440 kts | 104° |
| 2026-05-06 15:10 | 42.70279 | -72.78969 | 26134 ft | 436 kts | 104° |
| 2026-05-06 15:10 | 42.69819 | -72.74914 | 25697 ft | 435 kts | 103° |
| 2026-05-06 15:10 | 42.69376 | -72.70843 | 25231 ft | 432 kts | 103° |
| 2026-05-06 15:11 | 42.68911 | -72.66824 | 24801 ft | 426 kts | 104° |
| 2026-05-06 15:11 | 42.68422 | -72.62869 | 24333 ft | 423 kts | 104° |
| 2026-05-06 15:11 | 42.67928 | -72.58955 | 23973 ft | 419 kts | 105° |
| 2026-05-06 15:11 | 42.67446 | -72.55077 | 23517 ft | 414 kts | 105° |
| 2026-05-06 15:12 | 42.66964 | -72.51239 | 23070 ft | 410 kts | 104° |
| 2026-05-06 15:12 | 42.66506 | -72.47430 | 22627 ft | 406 kts | 105° |
| 2026-05-06 15:12 | 42.66056 | -72.43637 | 22197 ft | 407 kts | 103° |
| 2026-05-06 15:12 | 42.65620 | -72.39846 | 21773 ft | 404 kts | 104° |
| 2026-05-06 15:13 | 42.65157 | -72.36097 | 21352 ft | 401 kts | 105° |
| 2026-05-06 15:13 | 42.64693 | -72.32394 | 20916 ft | 399 kts | 105° |
| 2026-05-06 15:13 | 42.64240 | -72.28681 | 20385 ft | 399 kts | 104° |
| 2026-05-06 15:13 | 42.63805 | -72.24959 | 19881 ft | 399 kts | 104° |
| 2026-05-06 15:14 | 42.63379 | -72.21240 | 19414 ft | 397 kts | 105° |
| 2026-05-06 15:14 | 42.62950 | -72.17526 | 18874 ft | 398 kts | 105° |
| 2026-05-06 15:14 | 42.62527 | -72.13873 | 18353 ft | 397 kts | 105° |
| 2026-05-06 15:14 | 42.62094 | -72.10164 | 17822 ft | 397 kts | 105° |
| 2026-05-06 15:15 | 42.61662 | -72.06460 | 17287 ft | 397 kts | 105° |
| 2026-05-06 15:15 | 42.61222 | -72.02760 | 16795 ft | 395 kts | 105° |
| 2026-05-06 15:15 | 42.60775 | -71.99117 | 16376 ft | 385 kts | 106° |
| 2026-05-06 15:15 | 42.60338 | -71.95597 | 15985 ft | 373 kts | 107° |
| 2026-05-06 15:16 | 42.59912 | -71.92172 | 15597 ft | 362 kts | 107° |
| 2026-05-06 15:16 | 42.59499 | -71.88861 | 15228 ft | 352 kts | 107° |
| 2026-05-06 15:16 | 42.59090 | -71.85597 | 14633 ft | 350 kts | 107° |
| 2026-05-06 15:16 | 42.58686 | -71.82384 | 14239 ft | 349 kts | 108° |
| 2026-05-06 15:17 | 42.58227 | -71.79156 | 13839 ft | 346 kts | 110° |
| 2026-05-06 15:17 | 42.57719 | -71.75976 | 13445 ft | 345 kts | 111° |
| 2026-05-06 15:17 | 42.57198 | -71.72799 | 13048 ft | 344 kts | 111° |
| 2026-05-06 15:17 | 42.56687 | -71.69635 | 12643 ft | 343 kts | 111° |
| 2026-05-06 15:18 | 42.56183 | -71.66477 | 12251 ft | 341 kts | 111° |
| 2026-05-06 15:18 | 42.55685 | -71.63338 | 11851 ft | 340 kts | 111° |
| 2026-05-06 15:18 | 42.55192 | -71.60224 | 11641 ft | 333 kts | 111° |
| 2026-05-06 15:18 | 42.54669 | -71.57201 | 11301 ft | 327 kts | 114° |
| 2026-05-06 15:19 | 42.54059 | -71.54251 | 10953 ft | 324 kts | 115° |
| 2026-05-06 15:19 | 42.53426 | -71.51307 | 10589 ft | 323 kts | 115° |
| 2026-05-06 15:19 | 42.52801 | -71.48388 | 10237 ft | 321 kts | 114° |
| 2026-05-06 15:19 | 42.52198 | -71.45515 | 10108 ft | 312 kts | 114° |
| 2026-05-06 15:20 | 42.51615 | -71.42717 | 9921 ft | 305 kts | 115° |
| 2026-05-06 15:20 | 42.51034 | -71.39945 | 9575 ft | 306 kts | 114° |
| 2026-05-06 15:20 | 42.50455 | -71.37178 | 9242 ft | 304 kts | 114° |
| 2026-05-06 15:20 | 42.49891 | -71.34421 | 8926 ft | 303 kts | 113° |
| 2026-05-06 15:21 | 42.49342 | -71.31662 | 8587 ft | 303 kts | 113° |
| 2026-05-06 15:21 | 42.48804 | -71.28942 | 8257 ft | 302 kts | 113° |
| 2026-05-06 15:21 | 42.48258 | -71.26202 | 7915 ft | 302 kts | 113° |
| 2026-05-06 15:21 | 42.47706 | -71.23448 | 7573 ft | 303 kts | 113° |
| 2026-05-06 15:22 | 42.47154 | -71.20694 | 7220 ft | 303 kts | 113° |
| 2026-05-06 15:22 | 42.46604 | -71.17945 | 6884 ft | 302 kts | 112° |
| 2026-05-06 15:22 | 42.46484 | -71.15070 | 6508 ft | 316 kts | 83° |
| 2026-05-06 15:22 | 42.47249 | -71.12278 | 6299 ft | 316 kts | 67° |
| 2026-05-06 15:23 | 42.48238 | -71.09664 | 6163 ft | 307 kts | 66° |
| 2026-05-06 15:23 | 42.49287 | -71.07210 | 5998 ft | 298 kts | 51° |
| 2026-05-06 15:23 | 42.50867 | -71.05500 | 6006 ft | 285 kts | 26° |
| 2026-05-06 15:23 | 42.52676 | -71.04444 | 6014 ft | 284 kts | 17° |
| 2026-05-06 15:24 | 42.54538 | -71.03573 | 5999 ft | 282 kts | 16° |
| 2026-05-06 15:24 | 42.56391 | -71.02705 | 5995 ft | 282 kts | 16° |
| 2026-05-06 15:24 | 42.58214 | -71.01782 | 6009 ft | 280 kts | 17° |
| 2026-05-06 15:24 | 42.59958 | -71.00566 | 5553 ft | 289 kts | 44° |
| 2026-05-06 15:25 | 42.61018 | -70.98326 | 5237 ft | 279 kts | 76° |
| 2026-05-06 15:25 | 42.61856 | -70.95926 | 4853 ft | 288 kts | 53° |
| 2026-05-06 15:25 | 42.63361 | -70.94147 | 4638 ft | 284 kts | 33° |
| 2026-05-06 15:25 | 42.65009 | -70.92704 | 4395 ft | 281 kts | 31° |
| 2026-05-06 15:26 | 42.66666 | -70.91303 | 4146 ft | 279 kts | 31° |
| 2026-05-06 15:26 | 42.68295 | -70.89933 | 4007 ft | 270 kts | 31° |
| 2026-05-06 15:26 | 42.69869 | -70.88614 | 3982 ft | 263 kts | 31° |
| 2026-05-06 15:26 | 42.71405 | -70.87319 | 3995 ft | 268 kts | 31° |
| 2026-05-06 15:27 | 42.73023 | -70.85950 | 4029 ft | 275 kts | 31° |
| 2026-05-06 15:27 | 42.74641 | -70.84584 | 3989 ft | 270 kts | 31° |
| 2026-05-06 15:27 | 42.76131 | -70.83068 | 3742 ft | 268 kts | 52° |
| 2026-05-06 15:27 | 42.76963 | -70.80893 | 3488 ft | 255 kts | 86° |
| 2026-05-06 15:28 | 42.76908 | -70.78602 | 3243 ft | 233 kts | 120° |
| 2026-05-06 15:28 | 42.76058 | -70.76900 | 3052 ft | 209 kts | 155° |
| 2026-05-06 15:28 | 42.74777 | -70.76284 | 3027 ft | 190 kts | 186° |
| 2026-05-06 15:28 | 42.73465 | -70.76010 | 2971 ft | 201 kts | 161° |
| 2026-05-06 15:29 | 42.72224 | -70.75158 | 2952 ft | 196 kts | 177° |
| 2026-05-06 15:29 | 42.70986 | -70.75482 | 3005 ft | 184 kts | 213° |
| 2026-05-06 15:29 | 42.69907 | -70.76442 | 2999 ft | 186 kts | 214° |
| 2026-05-06 15:29 | 42.68850 | -70.77436 | 3005 ft | 184 kts | 216° |
| 2026-05-06 15:30 | 42.67821 | -70.78413 | 2999 ft | 180 kts | 216° |
| 2026-05-06 15:30 | 42.66803 | -70.79382 | 2992 ft | 177 kts | 216° |
| 2026-05-06 15:30 | 42.65781 | -70.80355 | 3001 ft | 181 kts | 215° |
| 2026-05-06 15:30 | 42.64737 | -70.81353 | 3009 ft | 185 kts | 215° |
| 2026-05-06 15:31 | 42.63685 | -70.82353 | 3001 ft | 184 kts | 215° |
| 2026-05-06 15:31 | 42.62647 | -70.83342 | 3005 ft | 181 kts | 215° |
| 2026-05-06 15:31 | 42.61618 | -70.84321 | 2994 ft | 180 kts | 215° |
| 2026-05-06 15:32 | 42.59617 | -70.86226 | 3004 ft | 179 kts | 215° |
| 2026-05-06 15:32 | 42.58578 | -70.87215 | 3011 ft | 184 kts | 215° |
| 2026-05-06 15:32 | 42.57531 | -70.88211 | 3004 ft | 184 kts | 216° |
| 2026-05-06 15:32 | 42.56495 | -70.89196 | 3005 ft | 181 kts | 215° |
| 2026-05-06 15:33 | 42.55469 | -70.90167 | 2999 ft | 179 kts | 214° |
| 2026-05-06 15:33 | 42.54456 | -70.91130 | 2992 ft | 177 kts | 214° |
| 2026-05-06 15:33 | 42.53446 | -70.92083 | 2995 ft | 178 kts | 216° |
| 2026-05-06 15:33 | 42.52363 | -70.92902 | 2848 ft | 188 kts | 199° |
| 2026-05-06 15:34 | 42.51108 | -70.93390 | 2671 ft | 180 kts | 202° |
| 2026-05-06 15:34 | 42.49964 | -70.93968 | 2446 ft | 172 kts | 202° |
| 2026-05-06 15:34 | 42.48856 | -70.94520 | 2254 ft | 168 kts | 200° |
| 2026-05-06 15:34 | 42.47769 | -70.95049 | 2181 ft | 164 kts | 200° |
| 2026-05-06 15:35 | 42.46700 | -70.95566 | 1972 ft | 158 kts | 200° |
| 2026-05-06 15:35 | 42.45709 | -70.96047 | 1770 ft | 146 kts | 200° |
| 2026-05-06 15:35 | 42.44770 | -70.96502 | 1584 ft | 140 kts | 199° |
| 2026-05-06 15:35 | 42.43860 | -70.96942 | 1413 ft | 139 kts | 200° |
| 2026-05-06 15:36 | 42.42933 | -70.97389 | 1195 ft | 142 kts | 199° |
| 2026-05-06 15:36 | 42.42026 | -70.97830 | 1013 ft | 139 kts | 199° |
| 2026-05-06 15:36 | 42.41123 | -70.98267 | 831 ft | 139 kts | 198° |
| 2026-05-06 15:36 | 42.40208 | -70.98712 | 659 ft | 140 kts | 199° |
| 2026-05-06 15:37 | 42.39284 | -70.99162 | 484 ft | 139 kts | 200° |
| 2026-05-06 15:37 | 42.38355 | -70.99608 | 267 ft | 136 kts | 201° |
| 2026-05-06 15:37 | 42.37489 | -71.00029 | 92 ft | 135 kts | 199° |
| 2026-05-06 15:37 | 42.36591 | -71.00457 | 30 ft | 133 kts | 198° |
| 2026-05-06 15:38 | 42.35960 | -71.00762 | 28 ft | 57 kts | 200° |
| 2026-05-06 15:38 | 42.35691 | -71.00905 | 27 ft | 29 kts | 210° |
| 2026-05-06 15:38 | 42.35646 | -71.01065 | 27 ft | 16 kts | 279° |
| 2026-05-06 15:38 | 42.35664 | -71.01165 | 26 ft | 0 kts | 294° |
| 2026-05-06 15:39 | 42.35673 | -71.01186 | 28 ft | 8 kts | 301° |
| 2026-05-06 15:40 | 42.35707 | -71.01254 | 27 ft | 9 kts | 304° |
| 2026-05-06 15:40 | 42.35740 | -71.01322 | 26 ft | 9 kts | 300° |
| 2026-05-06 15:40 | 42.35763 | -71.01396 | 26 ft | 8 kts | 291° |
| 2026-05-06 15:40 | 42.35783 | -71.01468 | 29 ft | 8 kts | 290° |
| 2026-05-06 15:41 | 42.35814 | -71.01540 | 24 ft | 9 kts | 329° |
| 2026-05-06 15:41 | 42.35871 | -71.01577 | 26 ft | 9 kts | 320° |
| 2026-05-06 15:41 | 42.35895 | -71.01654 | 28 ft | 9 kts | 281° |
| 2026-05-06 15:41 | 42.35907 | -71.01741 | 27 ft | 9 kts | 281° |
| 2026-05-06 15:42 | 42.35925 | -71.01827 | 26 ft | 10 kts | 290° |
| 2026-05-06 15:42 | 42.35959 | -71.01912 | 28 ft | 10 kts | 300° |
| 2026-05-06 15:42 | 42.35994 | -71.01995 | 29 ft | 10 kts | 301° |
| 2026-05-06 15:42 | 42.36029 | -71.02074 | 28 ft | 10 kts | 300° |
| 2026-05-06 15:43 | 42.36064 | -71.02156 | 27 ft | 10 kts | 300° |
| 2026-05-06 15:43 | 42.36097 | -71.02232 | 26 ft | 8 kts | 300° |
| 2026-05-06 15:43 | 42.36138 | -71.02283 | 28 ft | 8 kts | 347° |
| 2026-05-06 15:43 | 42.36193 | -71.02273 | 27 ft | 8 kts | 20° |
| 2026-05-06 15:44 | 42.36244 | -71.02246 | 24 ft | 8 kts | 11° |
| 2026-05-06 15:44 | 42.36295 | -71.02260 | 26 ft | 8 kts | 329° |
| 2026-05-06 15:44 | 42.36339 | -71.02289 | 28 ft | 7 kts | 358° |
| 2026-05-06 15:44 | 42.36383 | -71.02260 | 25 ft | 5 kts | 32° |
| 2026-05-06 15:45 | 42.36395 | -71.02249 | 25 ft | 0 kts | 32° |